• Join FlightAware (Why Join?)
  • Login
  • US Flag GB Flag 
03:19 EDT


 

Airport Tracker/Info


-or-


 

Live Flight TrackerFlight Track Log ✈ JZA8145 ✈ 19-May-2013 ✈ CYEG - CYYC

Flight Track Log - Related Links

Times and Time Zones

All times are in EDT time to prevent confusion due to time zone crossing. See the JZA8145 flight status page for this flight to view local times or setup timezone preferences in your user account.

Time Position Orientation Groundspeed Altitude Reporting Facility
EDT Latitude Longitude Course Direction KTS MPH feet Rate Location/Type
15:02 53.3000 -113.6167 166° South 20 23 2,400  Level Edmonton Center
15:03 53.3167 -113.5833 50° Northeast 140 161 3,800 1,320 Climbing Edmonton Center
15:04 53.3167 -113.5000 90° East 160 184 5,100 1,140 Climbing Edmonton Center
15:05 53.2667 -113.5000 180° South 190 219 6,100 1,020 Climbing Edmonton Center
15:06 53.2167 -113.4833 169° South 200 230 7,200 1,080 Climbing Edmonton Center
15:07 53.0512 -113.8115 169° South  Level FlightAware Approximate
15:07 53.1667 -113.5000 191° South 200 230 8,300  Level Edmonton Center
15:08 52.9824 -113.7886 169° South  Level FlightAware Approximate
15:08 53.1000 -113.5167 189° South 200 230 9,700  Level Edmonton Center
15:09 52.9137 -113.7655 166° South  Level FlightAware Approximate
15:09 53.0500 -113.5000 169° South 200 230 10,900  Level Edmonton Center
15:10 52.9833 -113.5167 189° South 200 230 12,100 1,140 Climbing Edmonton Center
15:11 52.9333 -113.5000 169° South 200 230 13,200 1,080 Climbing Edmonton Center
15:12 52.8833 -113.5167 191° South 210 242 14,300 900 Climbing Edmonton Center
15:13 52.8000 -113.5333 187° South 210 242 15,000 300 Climbing Edmonton Center
15:14 52.7500 -113.5333 180° South 250 288 15,000  Level Edmonton Center
15:15 52.6667 -113.5333 180° South 260 299 15,000  Level Edmonton Center
15:16 52.6000 -113.5500 189° South 260 299 15,000  Level Edmonton Center
15:17 52.5167 -113.5667 187° South 260 299 15,000  Level Edmonton Center
15:18 52.4500 -113.5500 171° South 260 299 15,000  Level Edmonton Center
15:19 52.3833 -113.5667 189° South 260 299 15,000  Level Edmonton Center
15:20 52.3167 -113.5833 189° South 260 299 15,000  Level Edmonton Center
15:21 52.2333 -113.5833 180° South 260 299 15,000  Level Edmonton Center
15:22 52.1667 -113.5667 171° South 260 299 15,000  Level Edmonton Center
15:23 52.0667 -113.5833 186° South 260 299 15,000  Level Edmonton Center
15:24 52.0000 -113.6000 189° South 270 311 15,000  Level Edmonton Center
15:25 51.9333 -113.6167 189° South 260 299 15,000 -60 Level Edmonton Center
15:26 51.8667 -113.6167 180° South 260 299 14,900 -660 Descending Edmonton Center
15:27 51.7833 -113.6333 187° South 270 311 13,700 -1,260 Descending Edmonton Center
15:28 51.7167 -113.6500 189° South 270 311 12,400 -1,260 Descending Edmonton Center
15:29 51.6333 -113.6833 194° South 270 311 11,200 -1,200 Descending Edmonton Center
15:30 51.5667 -113.7333 205° Southwest 270 311 10,100 -1,020 Descending Edmonton Center
15:31 51.5000 -113.7333 180° South 270 311 9,200 -960 Descending Edmonton Center
15:32 51.4333 -113.7833 205° Southwest 270 311 8,200 -600 Descending Edmonton Center
15:33 51.3500 -113.7833 180° South 260 299 8,000 -120 Descending Edmonton Center
15:34 51.2667 -113.8333 201° Southwest 260 299 8,000  Level Edmonton Center
15:35 51.2000 -113.8667 197° South 260 299 8,000  Level Edmonton Center
15:36 51.1333 -113.8500 171° South 250 288 8,000  Level Edmonton Center
15:37 51.0833 -113.7833 140° Southeast 250 288 8,000  Level Edmonton Center
15:38 51.0667 -113.6833 105° East 230 265 8,000 -720 Level Edmonton Center
15:39 51.0000 -113.6833 180° South 230 265 6,600 -1,020 Descending Edmonton Center
15:40 51.0000 -113.7667 270° West 190 219 6,000 -300 Descending Edmonton Center
15:41 51.0167 -113.8333 292° West 160 184 6,000 -300 Level Edmonton Center
15:42 51.0500 -113.8833 317° Northwest 160 184 5,400 -780 Descending Edmonton Center
15:43 51.0500 -113.9667 270° West 140 161 4,500 -900 Descending Edmonton Center